sensor_id;sensor_type;location;lat;lon;timestamp;pressure;altitude;pressure_sealevel;temperature;humidity
84663;BME280;74891;59.208;18.220;2024-03-02T00:01:14;101223.38;;;2.97;94.79
84663;BME280;74891;59.208;18.220;2024-03-02T00:03:39;101214.25;;;2.93;95.06
84663;BME280;74891;59.208;18.220;2024-03-02T00:06:06;101221.59;;;2.98;94.22
84663;BME280;74891;59.208;18.220;2024-03-02T00:08:34;101226.31;;;2.94;94.57
84663;BME280;74891;59.208;18.220;2024-03-02T00:11:07;101224.41;;;2.80;93.86
84663;BME280;74891;59.208;18.220;2024-03-02T00:13:36;101229.25;;;2.83;94.60
84663;BME280;74891;59.208;18.220;2024-03-02T00:16:17;101234.94;;;2.86;94.30
84663;BME280;74891;59.208;18.220;2024-03-02T00:18:43;101237.06;;;2.83;94.22
84663;BME280;74891;59.208;18.220;2024-03-02T00:21:09;101232.50;;;2.85;94.84
84663;BME280;74891;59.208;18.220;2024-03-02T00:23:40;101230.41;;;2.80;94.30
84663;BME280;74891;59.208;18.220;2024-03-02T00:26:09;101236.28;;;2.74;94.08
84663;BME280;74891;59.208;18.220;2024-03-02T00:28:36;101239.03;;;2.73;94.02
84663;BME280;74891;59.208;18.220;2024-03-02T00:31:11;101208.50;;;2.50;94.08
84663;BME280;74891;59.208;18.220;2024-03-02T00:33:44;101224.09;;;2.58;94.42
84663;BME280;74891;59.208;18.220;2024-03-02T00:36:13;101224.25;;;2.57;94.35
84663;BME280;74891;59.208;18.220;2024-03-02T00:38:51;101232.38;;;2.62;93.92
84663;BME280;74891;59.208;18.220;2024-03-02T00:41:32;101213.03;;;2.56;94.15
84663;BME280;74891;59.208;18.220;2024-03-02T00:46:36;101234.97;;;2.54;94.19
84663;BME280;74891;59.208;18.220;2024-03-02T00:51:44;101145.16;;;2.02;94.02
84663;BME280;74891;59.208;18.220;2024-03-02T00:54:14;101220.84;;;2.48;94.03
84663;BME280;74891;59.208;18.220;2024-03-02T00:56:44;101217.59;;;2.46;94.50
84663;BME280;74891;59.208;18.220;2024-03-02T00:59:11;101211.44;;;2.47;94.07
84663;BME280;74891;59.208;18.220;2024-03-02T01:01:40;101186.56;;;2.36;94.35
84663;BME280;74891;59.208;18.220;2024-03-02T01:04:08;101211.56;;;2.54;94.26
84663;BME280;74891;59.208;18.220;2024-03-02T01:06:35;101205.25;;;2.32;94.17
84663;BME280;74891;59.208;18.220;2024-03-02T01:09:06;101217.44;;;2.39;93.62
84663;BME280;74891;59.208;18.220;2024-03-02T01:11:31;101225.56;;;2.44;94.00
84663;BME280;74891;59.208;18.220;2024-03-02T01:13:59;101209.31;;;2.34;94.18
84663;BME280;74891;59.208;18.220;2024-03-02T01:16:31;101226.38;;;2.45;94.53
84663;BME280;74891;59.208;18.220;2024-03-02T01:18:57;101219.53;;;2.44;94.43
84663;BME280;74891;59.208;18.220;2024-03-02T01:21:28;101223.44;;;2.48;94.69
84663;BME280;74891;59.208;18.220;2024-03-02T01:23:59;101209.31;;;2.34;94.24
84663;BME280;74891;59.208;18.220;2024-03-02T01:26:27;101209.13;;;2.36;93.92
84663;BME280;74891;59.208;18.220;2024-03-02T01:28:53;101233.50;;;2.43;94.26
84663;BME280;74891;59.208;18.220;2024-03-02T01:31:18;101236.75;;;2.45;93.97
84663;BME280;74891;59.208;18.220;2024-03-02T01:33:44;101224.56;;;2.37;93.99
84663;BME280;74891;59.208;18.220;2024-03-02T01:36:09;101229.63;;;2.47;93.96
84663;BME280;74891;59.208;18.220;2024-03-02T01:38:37;101231.72;;;2.52;94.26
84663;BME280;74891;59.208;18.220;2024-03-02T01:41:05;101205.56;;;2.29;94.25
84663;BME280;74891;59.208;18.220;2024-03-02T01:43:35;101223.91;;;2.43;94.09
84663;BME280;74891;59.208;18.220;2024-03-02T01:46:06;101230.91;;;2.43;94.44
84663;BME280;74891;59.208;18.220;2024-03-02T01:48:34;101184.59;;;2.14;94.09
84663;BME280;74891;59.208;18.220;2024-03-02T01:51:05;101227.97;;;2.38;94.26
84663;BME280;74891;59.208;18.220;2024-03-02T01:53:36;101231.22;;;2.40;94.28
84663;BME280;74891;59.208;18.220;2024-03-02T01:56:02;101221.81;;;2.39;93.54
84663;BME280;74891;59.208;18.220;2024-03-02T01:58:30;101221.00;;;2.38;94.02
84663;BME280;74891;59.208;18.220;2024-03-02T02:00:56;101223.44;;;2.48;94.57
84663;BME280;74891;59.208;18.220;2024-03-02T02:03:24;101228.63;;;2.48;94.34
84663;BME280;74891;59.208;18.220;2024-03-02T02:05:50;101218.72;;;2.43;94.33
84663;BME280;74891;59.208;18.220;2024-03-02T02:08:21;101228.97;;;2.53;94.02
84663;BME280;74891;59.208;18.220;2024-03-02T02:10:47;101228.97;;;2.53;93.98
84663;BME280;74891;59.208;18.220;2024-03-02T02:13:12;101234.81;;;2.47;93.81
84663;BME280;74891;59.208;18.220;2024-03-02T02:15:38;101234.16;;;2.45;94.11
84663;BME280;74891;59.208;18.220;2024-03-02T02:18:03;101239.03;;;2.40;94.20
84663;BME280;74891;59.208;18.220;2024-03-02T02:20:31;101246.03;;;2.39;93.67
84663;BME280;74891;59.208;18.220;2024-03-02T02:23:01;101240.81;;;2.39;93.70
84663;BME280;74891;59.208;18.220;2024-03-02T02:25:38;101243.25;;;2.49;94.46
84663;BME280;74891;59.208;18.220;2024-03-02T02:28:04;101235.13;;;2.44;94.41
84663;BME280;74891;59.208;18.220;2024-03-02T02:30:33;101234.81;;;2.39;94.70
84663;BME280;74891;59.208;18.220;2024-03-02T02:33:04;101239.03;;;2.40;94.11
84663;BME280;74891;59.208;18.220;2024-03-02T02:35:33;101232.03;;;2.40;94.00
84663;BME280;74891;59.208;18.220;2024-03-02T02:37:58;101230.56;;;2.38;94.22
84663;BME280;74891;59.208;18.220;2024-03-02T02:40:30;101206.53;;;2.28;94.58
84663;BME280;74891;59.208;18.220;2024-03-02T02:42:56;101222.63;;;2.39;94.21
84663;BME280;74891;59.208;18.220;2024-03-02T02:45:27;101219.53;;;2.36;94.01
84663;BME280;74891;59.208;18.220;2024-03-02T02:47:55;101207.38;;;2.36;94.27
84663;BME280;74891;59.208;18.220;2024-03-02T02:50:23;101226.50;;;2.43;93.98
84663;BME280;74891;59.208;18.220;2024-03-02T02:52:49;101234.16;;;2.45;94.26
84663;BME280;74891;59.208;18.220;2024-03-02T02:55:15;101239.69;;;2.42;94.70
84663;BME280;74891;59.208;18.220;2024-03-02T02:57:41;101228.31;;;2.35;93.82
84663;BME280;74891;59.208;18.220;2024-03-02T03:00:10;101246.16;;;2.38;94.05
84663;BME280;74891;59.208;18.220;2024-03-02T03:02:42;101216.91;;;2.19;94.38
84663;BME280;74891;59.208;18.220;2024-03-02T03:05:12;101237.09;;;2.34;94.15
84663;BME280;74891;59.208;18.220;2024-03-02T03:07:41;101233.97;;;2.30;93.43
84663;BME280;74891;59.208;18.220;2024-03-02T03:10:09;101225.56;;;2.20;93.83
84663;BME280;74891;59.208;18.220;2024-03-02T03:12:45;101232.19;;;2.22;93.83
84663;BME280;74891;59.208;18.220;2024-03-02T03:15:21;101227.31;;;2.19;93.90
84663;BME280;74891;59.208;18.220;2024-03-02T03:17:49;101225.03;;;2.25;93.78
84663;BME280;74891;59.208;18.220;2024-03-02T03:20:16;101217.91;;;2.10;94.21
84663;BME280;74891;59.208;18.220;2024-03-02T03:22:41;101237.69;;;2.19;93.72
84663;BME280;74891;59.208;18.220;2024-03-02T03:25:15;101198.72;;;1.95;93.81
84663;BME280;74891;59.208;18.220;2024-03-02T03:27:40;101243.06;;;2.10;93.26
84663;BME280;74891;59.208;18.220;2024-03-02T03:30:10;101226.31;;;1.96;93.65
84663;BME280;74891;59.208;18.220;2024-03-02T03:32:44;101240.28;;;2.03;94.27
84663;BME280;74891;59.208;18.220;2024-03-02T03:35:10;101235.75;;;2.05;93.76
84663;BME280;74891;59.208;18.220;2024-03-02T03:37:37;101244.34;;;2.06;93.63
84663;BME280;74891;59.208;18.220;2024-03-02T03:40:06;101229.88;;;1.95;93.82
84663;BME280;74891;59.208;18.220;2024-03-02T03:42:38;101246.75;;;1.91;93.59
84663;BME280;74891;59.208;18.220;2024-03-02T03:45:09;101243.19;;;1.92;93.80
84663;BME280;74891;59.208;18.220;2024-03-02T03:47:38;101248.53;;;1.90;94.43
84663;BME280;74891;59.208;18.220;2024-03-02T03:50:29;101248.38;;;1.92;94.45
84663;BME280;74891;59.208;18.220;2024-03-02T03:52:58;101244.66;;;1.94;94.28
84663;BME280;74891;59.208;18.220;2024-03-02T03:58:02;101254.72;;;1.97;93.97
84663;BME280;74891;59.208;18.220;2024-03-02T04:00:28;101242.84;;;1.95;94.30
84663;BME280;74891;59.208;18.220;2024-03-02T04:02:53;101237.03;;;2.01;94.61
84663;BME280;74891;59.208;18.220;2024-03-02T04:05:21;101239.66;;;2.01;93.93
84663;BME280;74891;59.208;18.220;2024-03-02T04:07:50;101230.22;;;2.00;94.02
84663;BME280;74891;59.208;18.220;2024-03-02T04:10:15;101233.47;;;2.02;94.25
84663;BME280;74891;59.208;18.220;2024-03-02T04:12:42;101239.31;;;2.04;94.32
84663;BME280;74891;59.208;18.220;2024-03-02T04:15:09;101245.16;;;2.06;94.54
84663;BME280;74891;59.208;18.220;2024-03-02T04:17:34;101240.13;;;2.05;94.20
84663;BME280;74891;59.208;18.220;2024-03-02T04:20:07;101239.81;;;2.08;94.14
84663;BME280;74891;59.208;18.220;2024-03-02T04:22:37;101240.28;;;2.11;94.19
84663;BME280;74891;59.208;18.220;2024-03-02T04:25:09;101236.09;;;2.18;94.33
84663;BME280;74891;59.208;18.220;2024-03-02T04:27:41;101231.69;;;2.19;94.42
84663;BME280;74891;59.208;18.220;2024-03-02T04:30:12;101240.16;;;2.21;94.57
84663;BME280;74891;59.208;18.220;2024-03-02T04:32:48;101230.88;;;2.18;94.49
84663;BME280;74891;59.208;18.220;2024-03-02T04:35:14;101241.13;;;2.20;94.39
84663;BME280;74891;59.208;18.220;2024-03-02T04:37:58;101230.53;;;2.05;94.01
84663;BME280;74891;59.208;18.220;2024-03-02T04:40:31;101234.47;;;2.17;93.83
84663;BME280;74891;59.208;18.220;2024-03-02T04:43:10;101240.28;;;2.19;94.33
84663;BME280;74891;59.208;18.220;2024-03-02T04:45:44;101231.22;;;2.15;94.54
84663;BME280;74891;59.208;18.220;2024-03-02T04:48:15;101241.28;;;2.27;94.28
84663;BME280;74891;59.208;18.220;2024-03-02T04:50:40;101235.28;;;2.26;94.50
84663;BME280;74891;59.208;18.220;2024-03-02T04:53:08;101243.25;;;2.33;94.15
84663;BME280;74891;59.208;18.220;2024-03-02T04:55:39;101193.19;;;1.98;94.15
84663;BME280;74891;59.208;18.220;2024-03-02T04:58:07;101236.75;;;2.29;94.21
84663;BME280;74891;59.208;18.220;2024-03-02T05:00:35;101247.31;;;2.35;94.18
84663;BME280;74891;59.208;18.220;2024-03-02T05:03:02;101249.56;;;2.38;94.61
84663;BME280;74891;59.208;18.220;2024-03-02T05:05:34;101259.00;;;2.39;94.07
84663;BME280;74891;59.208;18.220;2024-03-02T05:08:25;101251.03;;;2.41;94.02
84663;BME280;74891;59.208;18.220;2024-03-02T05:10:56;101247.47;;;2.42;93.76
84663;BME280;74891;59.208;18.220;2024-03-02T05:13:41;101249.25;;;2.41;94.27
84663;BME280;74891;59.208;18.220;2024-03-02T05:16:06;101257.88;;;2.42;94.16
84663;BME280;74891;59.208;18.220;2024-03-02T05:18:34;101245.84;;;2.41;94.83
84663;BME280;74891;59.208;18.220;2024-03-02T05:21:11;101260.81;;;2.47;94.07
84663;BME280;74891;59.208;18.220;2024-03-02T05:23:39;101147.06;;;1.75;93.89
84663;BME280;74891;59.208;18.220;2024-03-02T05:26:07;101260.81;;;2.47;93.57
84663;BME280;74891;59.208;18.220;2024-03-02T05:28:36;101257.22;;;2.48;93.84
84663;BME280;74891;59.208;18.220;2024-03-02T05:31:02;101246.81;;;2.48;93.81
84663;BME280;74891;59.208;18.220;2024-03-02T05:33:32;101248.44;;;2.57;93.94
84663;BME280;74891;59.208;18.220;2024-03-02T05:36:04;101250.22;;;2.57;93.75
84663;BME280;74891;59.208;18.220;2024-03-02T05:38:44;101267.28;;;2.59;94.05
84663;BME280;74891;59.208;18.220;2024-03-02T05:41:13;101261.13;;;2.60;93.94
84663;BME280;74891;59.208;18.220;2024-03-02T05:43:47;101270.56;;;2.61;93.37
84663;BME280;74891;59.208;18.220;2024-03-02T05:46:12;101273.63;;;2.65;93.85
84663;BME280;74891;59.208;18.220;2024-03-02T05:48:50;101267.63;;;2.64;93.38
84663;BME280;74891;59.208;18.220;2024-03-02T05:51:18;101279.63;;;2.65;93.66
84663;BME280;74891;59.208;18.220;2024-03-02T05:53:44;101271.50;;;2.69;93.97
84663;BME280;74891;59.208;18.220;2024-03-02T05:56:09;101265.84;;;2.65;93.66
84663;BME280;74891;59.208;18.220;2024-03-02T05:58:38;101277.38;;;2.71;93.43
84663;BME280;74891;59.208;18.220;2024-03-02T06:01:25;101255.09;;;2.60;93.57
84663;BME280;74891;59.208;18.220;2024-03-02T06:03:56;101278.03;;;2.73;93.48
84663;BME280;74891;59.208;18.220;2024-03-02T06:06:25;101284.84;;;2.74;93.49
84663;BME280;74891;59.208;18.220;2024-03-02T06:08:50;101285.50;;;2.76;93.59
84663;BME280;74891;59.208;18.220;2024-03-02T06:11:16;101295.09;;;2.75;93.43
84663;BME280;74891;59.208;18.220;2024-03-02T06:13:42;101291.84;;;2.73;93.28
84663;BME280;74891;59.208;18.220;2024-03-02T06:16:07;101292.63;;;2.74;93.33
84663;BME280;74891;59.208;18.220;2024-03-02T06:18:36;101294.59;;;2.80;93.12
84663;BME280;74891;59.208;18.220;2024-03-02T06:21:04;101249.56;;;2.55;93.19
84663;BME280;74891;59.208;18.220;2024-03-02T06:23:31;101276.72;;;2.77;93.65
84663;BME280;74891;59.208;18.220;2024-03-02T06:26:05;101300.94;;;2.85;93.49
84663;BME280;74891;59.208;18.220;2024-03-02T06:28:34;101280.16;;;2.77;93.42
84663;BME280;74891;59.208;18.220;2024-03-02T06:31:32;101294.59;;;2.88;92.59
84663;BME280;74891;59.208;18.220;2024-03-02T06:34:03;101304.69;;;2.91;93.37
84663;BME280;74891;59.208;18.220;2024-03-02T06:36:30;101302.69;;;2.93;93.21
84663;BME280;74891;59.208;18.220;2024-03-02T06:38:57;101300.44;;;2.90;93.12
84663;BME280;74891;59.208;18.220;2024-03-02T06:41:25;101323.19;;;3.04;93.03
84663;BME280;74891;59.208;18.220;2024-03-02T06:44:24;101322.53;;;3.10;92.81
84663;BME280;74891;59.208;18.220;2024-03-02T06:46:50;101320.59;;;3.13;93.14
84663;BME280;74891;59.208;18.220;2024-03-02T06:49:26;101308.38;;;3.13;92.79
84663;BME280;74891;59.208;18.220;2024-03-02T06:51:54;101321.56;;;3.11;92.17
84663;BME280;74891;59.208;18.220;2024-03-02T06:54:20;101322.53;;;3.19;92.75
84663;BME280;74891;59.208;18.220;2024-03-02T06:56:48;101325.78;;;3.21;92.47
84663;BME280;74891;59.208;18.220;2024-03-02T06:59:16;101288.06;;;3.00;92.61
84663;BME280;74891;59.208;18.220;2024-03-02T07:01:42;101326.09;;;3.26;92.25
84663;BME280;74891;59.208;18.220;2024-03-02T07:04:16;101340.06;;;3.33;92.42
84663;BME280;74891;59.208;18.220;2024-03-02T07:06:47;101323.50;;;3.34;92.08
84663;BME280;74891;59.208;18.220;2024-03-02T07:09:17;101332.44;;;3.40;92.42
84663;BME280;74891;59.208;18.220;2024-03-02T07:11:53;101331.28;;;3.42;92.07
84663;BME280;74891;59.208;18.220;2024-03-02T07:14:18;101335.50;;;3.43;91.74
84663;BME280;74891;59.208;18.220;2024-03-02T07:16:52;101337.59;;;3.48;91.70
84663;BME280;74891;59.208;18.220;2024-03-02T07:19:24;101331.91;;;3.44;91.80
84663;BME280;74891;59.208;18.220;2024-03-02T07:21:55;101336.78;;;3.47;91.37
84663;BME280;74891;59.208;18.220;2024-03-02T07:24:24;101306.41;;;3.31;91.56
84663;BME280;74891;59.208;18.220;2024-03-02T07:26:49;101340.19;;;3.56;91.43
84663;BME280;74891;59.208;18.220;2024-03-02T07:29:14;101352.06;;;3.59;92.04
84663;BME280;74891;59.208;18.220;2024-03-02T07:31:40;101351.41;;;3.65;91.79
84663;BME280;74891;59.208;18.220;2024-03-02T07:34:05;101352.84;;;3.67;91.48
84663;BME280;74891;59.208;18.220;2024-03-02T07:36:36;101340.78;;;3.66;91.23
84663;BME280;74891;59.208;18.220;2024-03-02T07:39:04;101352.50;;;3.70;91.27
84663;BME280;74891;59.208;18.220;2024-03-02T07:41:37;101351.38;;;3.73;91.04
84663;BME280;74891;59.208;18.220;2024-03-02T07:44:08;101345.34;;;3.72;90.94
84663;BME280;74891;59.208;18.220;2024-03-02T07:46:36;101332.81;;;3.68;90.74
84663;BME280;74891;59.208;18.220;2024-03-02T07:49:04;101346.81;;;3.75;90.75
84663;BME280;74891;59.208;18.220;2024-03-02T07:51:33;101354.28;;;3.78;90.71
84663;BME280;74891;59.208;18.220;2024-03-02T07:53:58;101355.09;;;3.78;90.76
84663;BME280;74891;59.208;18.220;2024-03-02T07:56:32;101357.19;;;3.83;90.75
84663;BME280;74891;59.208;18.220;2024-03-02T07:58:58;101358.81;;;3.84;91.09
84663;BME280;74891;59.208;18.220;2024-03-02T08:01:39;101355.22;;;3.85;90.25
84663;BME280;74891;59.208;18.220;2024-03-02T08:04:07;101345.31;;;3.81;90.41
84663;BME280;74891;59.208;18.220;2024-03-02T08:06:40;101348.72;;;3.81;90.01
84663;BME280;74891;59.208;18.220;2024-03-02T08:09:10;101365.31;;;3.88;90.28
84663;BME280;74891;59.208;18.220;2024-03-02T08:11:39;101359.81;;;3.83;89.77
84663;BME280;74891;59.208;18.220;2024-03-02T08:14:07;101363.22;;;3.84;90.36
84663;BME280;74891;59.208;18.220;2024-03-02T08:16:38;101359.47;;;3.86;90.75
84663;BME280;74891;59.208;18.220;2024-03-02T08:19:03;101358.66;;;3.86;90.46
84663;BME280;74891;59.208;18.220;2024-03-02T08:21:34;101362.06;;;3.86;89.99
84663;BME280;74891;59.208;18.220;2024-03-02T08:24:06;101372.81;;;3.83;90.32
84663;BME280;74891;59.208;18.220;2024-03-02T08:26:32;101374.44;;;3.84;89.94
84663;BME280;74891;59.208;18.220;2024-03-02T08:29:05;101374.59;;;3.83;90.22
84663;BME280;74891;59.208;18.220;2024-03-02T08:31:31;101373.31;;;3.78;90.06
84663;BME280;74891;59.208;18.220;2024-03-02T08:33:56;101371.38;;;3.81;90.11
84663;BME280;74891;59.208;18.220;2024-03-02T08:36:31;101364.69;;;3.78;90.10
84663;BME280;74891;59.208;18.220;2024-03-02T08:38:56;101369.91;;;3.78;90.13
84663;BME280;74891;59.208;18.220;2024-03-02T08:41:27;101360.94;;;3.81;90.40
84663;BME280;74891;59.208;18.220;2024-03-02T08:43:56;101365.34;;;3.80;89.90
84663;BME280;74891;59.208;18.220;2024-03-02T08:46:24;101363.72;;;3.79;89.86
84663;BME280;74891;59.208;18.220;2024-03-02T08:48:57;101325.84;;;3.60;90.20
84663;BME280;74891;59.208;18.220;2024-03-02T08:51:25;101314.78;;;3.58;89.82
84663;BME280;74891;59.208;18.220;2024-03-02T08:53:54;101343.66;;;3.88;89.61
84663;BME280;74891;59.208;18.220;2024-03-02T08:56:25;101350.00;;;3.85;89.49
84663;BME280;74891;59.208;18.220;2024-03-02T08:58:51;101346.16;;;3.73;89.41
84663;BME280;74891;59.208;18.220;2024-03-02T09:01:17;101361.25;;;3.86;89.47
84663;BME280;74891;59.208;18.220;2024-03-02T09:03:43;101358.47;;;3.87;89.46
84663;BME280;74891;59.208;18.220;2024-03-02T09:06:15;101369.84;;;3.94;89.23
84663;BME280;74891;59.208;18.220;2024-03-02T09:08:45;101370.66;;;3.95;88.69
84663;BME280;74891;59.208;18.220;2024-03-02T09:11:11;101358.94;;;3.91;89.42
84663;BME280;74891;59.208;18.220;2024-03-02T09:13:40;101368.22;;;3.93;88.93
84663;BME280;74891;59.208;18.220;2024-03-02T09:16:11;101367.72;;;3.98;89.01
84663;BME280;74891;59.208;18.220;2024-03-02T09:18:45;101375.06;;;3.94;88.82
84663;BME280;74891;59.208;18.220;2024-03-02T09:24:10;101364.91;;;4.08;88.58
84663;BME280;74891;59.208;18.220;2024-03-02T09:26:36;101357.06;;;4.16;88.44
84663;BME280;74891;59.208;18.220;2024-03-02T09:29:02;101368.09;;;4.26;88.45
84663;BME280;74891;59.208;18.220;2024-03-02T09:31:43;101363.81;;;4.33;87.79
84663;BME280;74891;59.208;18.220;2024-03-02T09:34:12;101347.91;;;4.20;87.43
84663;BME280;74891;59.208;18.220;2024-03-02T09:36:46;101374.53;;;4.38;87.89
84663;BME280;74891;59.208;18.220;2024-03-02T09:39:12;101386.75;;;4.38;87.38
84663;BME280;74891;59.208;18.220;2024-03-02T09:41:43;101378.75;;;4.39;86.93
84663;BME280;74891;59.208;18.220;2024-03-02T09:44:11;101365.84;;;4.46;86.97
84663;BME280;74891;59.208;18.220;2024-03-02T09:46:40;101390.03;;;4.40;86.43
84663;BME280;74891;59.208;18.220;2024-03-02T09:49:17;101390.81;;;4.40;86.79
84663;BME280;74891;59.208;18.220;2024-03-02T09:51:55;101381.19;;;4.41;87.12
84663;BME280;74891;59.208;18.220;2024-03-02T09:54:22;101385.25;;;4.43;87.05
84663;BME280;74891;59.208;18.220;2024-03-02T09:56:50;101383.66;;;4.42;86.89
84663;BME280;74891;59.208;18.220;2024-03-02T09:59:18;101380.84;;;4.44;86.89
84663;BME280;74891;59.208;18.220;2024-03-02T10:02:00;101379.09;;;4.36;86.87
84663;BME280;74891;59.208;18.220;2024-03-02T10:04:26;101381.91;;;4.35;86.31
84663;BME280;74891;59.208;18.220;2024-03-02T10:07:13;101379.78;;;4.30;86.54
84663;BME280;74891;59.208;18.220;2024-03-02T10:09:41;101383.38;;;4.29;86.61
84663;BME280;74891;59.208;18.220;2024-03-02T10:12:13;101387.44;;;4.32;86.65
84663;BME280;74891;59.208;18.220;2024-03-02T10:15:12;101385.00;;;4.30;86.73
84663;BME280;74891;59.208;18.220;2024-03-02T10:17:41;101383.59;;;4.19;86.93
84663;BME280;74891;59.208;18.220;2024-03-02T10:20:27;101386.84;;;4.21;86.91
84663;BME280;74891;59.208;18.220;2024-03-02T10:23:19;101383.78;;;4.10;87.02
84663;BME280;74891;59.208;18.220;2024-03-02T10:25:50;101387.53;;;4.15;86.72
84663;BME280;74891;59.208;18.220;2024-03-02T10:28:15;101387.50;;;4.24;86.77
84663;BME280;74891;59.208;18.220;2024-03-02T10:30:47;101386.34;;;4.18;86.82
84663;BME280;74891;59.208;18.220;2024-03-02T10:33:26;101308.34;;;3.77;86.64
84663;BME280;74891;59.208;18.220;2024-03-02T10:35:58;101378.03;;;4.22;86.53
84663;BME280;74891;59.208;18.220;2024-03-02T10:38:24;101378.72;;;4.16;86.28
84663;BME280;74891;59.208;18.220;2024-03-02T10:40:50;101379.56;;;4.09;86.77
84663;BME280;74891;59.208;18.220;2024-03-02T10:43:24;101384.44;;;4.12;86.37
84663;BME280;74891;59.208;18.220;2024-03-02T10:45:56;101364.31;;;3.97;86.66
84663;BME280;74891;59.208;18.220;2024-03-02T10:48:24;101387.00;;;4.20;86.81
84663;BME280;74891;59.208;18.220;2024-03-02T10:50:51;101362.94;;;4.10;86.58
84663;BME280;74891;59.208;18.220;2024-03-02T10:53:28;101382.78;;;4.19;86.28
84663;BME280;74891;59.208;18.220;2024-03-02T10:55:58;101381.78;;;4.20;86.39
84663;BME280;74891;59.208;18.220;2024-03-02T10:58:33;101389.59;;;4.20;86.57
84663;BME280;74891;59.208;18.220;2024-03-02T11:01:02;101380.19;;;4.19;85.96
84663;BME280;74891;59.208;18.220;2024-03-02T11:03:51;101375.47;;;4.14;86.24
84663;BME280;74891;59.208;18.220;2024-03-02T11:06:22;101379.53;;;4.17;86.03
84663;BME280;74891;59.208;18.220;2024-03-02T11:08:55;101370.41;;;4.21;86.37
84663;BME280;74891;59.208;18.220;2024-03-02T11:11:30;101371.34;;;4.20;85.99
84663;BME280;74891;59.208;18.220;2024-03-02T11:14:07;101366.19;;;4.12;86.06
84663;BME280;74891;59.208;18.220;2024-03-02T11:16:44;101373.81;;;4.21;85.72
84663;BME280;74891;59.208;18.220;2024-03-02T11:19:14;101373.97;;;4.20;85.56
84663;BME280;74891;59.208;18.220;2024-03-02T11:21:43;101375.75;;;4.19;85.55
84663;BME280;74891;59.208;18.220;2024-03-02T11:26:53;101377.34;;;4.29;85.42
84663;BME280;74891;59.208;18.220;2024-03-02T11:32:34;101367.59;;;4.22;85.56
84663;BME280;74891;59.208;18.220;2024-03-02T11:35:02;101365.03;;;4.14;85.05
84663;BME280;74891;59.208;18.220;2024-03-02T11:37:32;101376.13;;;4.16;85.42
84663;BME280;74891;59.208;18.220;2024-03-02T11:39:58;101372.66;;;4.24;85.37
84663;BME280;74891;59.208;18.220;2024-03-02T11:42:23;101372.00;;;4.22;85.30
84663;BME280;74891;59.208;18.220;2024-03-02T11:44:49;101362.63;;;4.13;84.75
84663;BME280;74891;59.208;18.220;2024-03-02T11:47:17;101385.03;;;4.22;85.24
84663;BME280;74891;59.208;18.220;2024-03-02T11:49:50;101381.75;;;4.28;85.52
84663;BME280;74891;59.208;18.220;2024-03-02T11:52:18;101390.22;;;4.30;85.11
84663;BME280;74891;59.208;18.220;2024-03-02T11:54:46;101383.13;;;4.16;84.96
84663;BME280;74891;59.208;18.220;2024-03-02T11:57:19;101373.16;;;4.19;85.09
84663;BME280;74891;59.208;18.220;2024-03-02T11:59:50;101376.91;;;4.17;85.02
84663;BME280;74891;59.208;18.220;2024-03-02T12:02:22;101380.19;;;4.19;85.15
84663;BME280;74891;59.208;18.220;2024-03-02T12:04:49;101384.06;;;4.23;84.96
84663;BME280;74891;59.208;18.220;2024-03-02T12:07:24;101381.44;;;4.23;85.28
84663;BME280;74891;59.208;18.220;2024-03-02T12:10:02;101379.13;;;4.28;85.11
84663;BME280;74891;59.208;18.220;2024-03-02T12:12:29;101374.91;;;4.27;84.93
84663;BME280;74891;59.208;18.220;2024-03-02T12:14:58;101377.88;;;4.24;85.27
84663;BME280;74891;59.208;18.220;2024-03-02T12:17:26;101352.22;;;4.05;85.16
84663;BME280;74891;59.208;18.220;2024-03-02T12:19:54;101379.03;;;4.21;85.40
84663;BME280;74891;59.208;18.220;2024-03-02T12:22:25;101381.44;;;4.23;84.96
84663;BME280;74891;59.208;18.220;2024-03-02T12:24:50;101370.06;;;4.24;85.36
84663;BME280;74891;59.208;18.220;2024-03-02T12:27:18;101364.03;;;4.24;84.80
84663;BME280;74891;59.208;18.220;2024-03-02T12:29:46;101363.53;;;4.20;84.55
84663;BME280;74891;59.208;18.220;2024-03-02T12:32:14;101372.34;;;4.19;84.80
84663;BME280;74891;59.208;18.220;2024-03-02T12:34:39;101373.16;;;4.19;84.94
84663;BME280;74891;59.208;18.220;2024-03-02T12:37:05;101375.31;;;4.16;84.97
84663;BME280;74891;59.208;18.220;2024-03-02T12:39:45;101369.75;;;4.19;84.51
84663;BME280;74891;59.208;18.220;2024-03-02T12:42:14;101374.78;;;4.20;84.95
84663;BME280;74891;59.208;18.220;2024-03-02T12:44:45;101377.94;;;4.08;84.66
84663;BME280;74891;59.208;18.220;2024-03-02T12:47:14;101377.94;;;4.08;85.15
84663;BME280;74891;59.208;18.220;2024-03-02T12:49:45;101378.91;;;4.07;84.83
84663;BME280;74891;59.208;18.220;2024-03-02T12:52:13;101365.00;;;3.91;84.94
84663;BME280;74891;59.208;18.220;2024-03-02T12:54:49;101392.63;;;4.00;84.73
84663;BME280;74891;59.208;18.220;2024-03-02T12:57:18;101359.13;;;3.89;85.17
84663;BME280;74891;59.208;18.220;2024-03-02T12:59:49;101381.34;;;4.08;85.04
84663;BME280;74891;59.208;18.220;2024-03-02T13:02:20;101383.50;;;4.05;85.18
84663;BME280;74891;59.208;18.220;2024-03-02T13:04:57;101388.53;;;4.06;85.27
84663;BME280;74891;59.208;18.220;2024-03-02T13:07:30;101368.81;;;4.04;84.87
84663;BME280;74891;59.208;18.220;2024-03-02T13:09:56;101383.31;;;4.06;84.95
84663;BME280;74891;59.208;18.220;2024-03-02T13:12:24;101384.13;;;4.07;84.82
84663;BME280;74891;59.208;18.220;2024-03-02T13:14:58;101352.91;;;3.90;84.93
84663;BME280;74891;59.208;18.220;2024-03-02T13:17:30;101391.28;;;4.13;85.05
84663;BME280;74891;59.208;18.220;2024-03-02T13:19:58;101389.34;;;4.07;84.17
84663;BME280;74891;59.208;18.220;2024-03-02T13:22:25;101377.44;;;4.04;84.85